Time;durP1;ratioP1;P1;durP2;ratioP2;P2;SDS_P1;SDS_P2;PMS_P1;PMS_P2;Temp;Humidity;BMP_temperature;BMP_pressure;BME280_temperature;BME280_humidity;BME280_pressure;Samples;Min_cycle;Max_cycle;Signal;HPM_P1;HPM_P2
2021/09/29 00:00:55;;;;;;;9.83;7.10;;;11.80;1.00;12.70;100782.00;;;;4996092;28;20470;-81
2021/09/29 00:03:25;;;;;;;7.60;6.90;;;11.80;1.00;12.60;100789.00;;;;4997008;28;20531;-81
2021/09/29 00:05:54;;;;;;;12.93;7.10;;;11.80;1.00;12.60;100730.00;;;;5006338;28;20437;-80
2021/09/29 00:08:22;;;;;;;12.40;7.93;;;11.70;1.00;12.60;100709.00;;;;4994338;28;20460;-78
2021/09/29 00:10:50;;;;;;;11.33;7.90;;;11.70;1.00;12.60;100759.00;;;;5010047;28;20497;-80
2021/09/29 00:13:26;;;;;;;10.37;8.20;;;11.60;1.00;12.50;100771.00;;;;5001003;28;20473;-80
2021/09/29 00:15:55;;;;;;;10.23;7.50;;;11.60;1.00;12.50;100772.00;;;;4982315;28;20478;-79
2021/09/29 00:18:26;;;;;;;11.87;7.83;;;11.60;1.00;12.50;100731.00;;;;4995879;28;20486;-79
2021/09/29 00:20:55;;;;;;;10.23;7.80;;;11.70;1.00;12.50;100784.00;;;;5011321;28;20517;-79
2021/09/29 00:23:23;;;;;;;8.70;7.40;;;11.60;1.00;12.40;100764.00;;;;5018535;28;20537;-80
2021/09/29 00:25:52;;;;;;;10.87;8.30;;;11.70;1.00;12.20;100784.00;;;;5014928;28;20484;-80
2021/09/29 00:28:20;;;;;;;10.30;8.17;;;11.60;1.00;12.50;100757.00;;;;5016405;28;20486;-79
2021/09/29 00:31:01;;;;;;;12.20;8.13;;;11.70;1.00;12.60;100766.00;;;;5016361;28;20459;-80
2021/09/29 00:33:34;;;;;;;8.53;7.70;;;11.70;1.00;12.50;100783.00;;;;5007218;28;20620;-80
2021/09/29 00:36:03;;;;;;;11.30;7.47;;;11.80;1.00;12.60;100762.00;;;;4992047;28;20461;-81
2021/09/29 00:38:31;;;;;;;9.40;7.67;;;11.90;1.00;12.80;100760.00;;;;5001465;28;20492;-81
2021/09/29 00:41:00;;;;;;;10.20;6.80;;;12.00;1.00;12.80;100729.00;;;;4999382;28;20454;-81
2021/09/29 00:43:28;;;;;;;10.33;8.00;;;12.00;1.00;12.70;100708.00;;;;4978973;28;20450;-80
2021/09/29 00:45:57;;;;;;;10.80;8.70;;;11.90;1.00;12.60;100742.00;;;;5009968;28;20469;-81
2021/09/29 00:48:26;;;;;;;12.13;8.97;;;11.80;1.00;12.60;100720.00;;;;5004818;28;20483;-81
2021/09/29 00:50:56;;;;;;;12.93;9.10;;;11.80;1.00;12.50;100703.00;;;;5013977;28;20449;-82
2021/09/29 00:53:24;;;;;;;8.90;7.80;;;11.70;1.00;12.40;100716.00;;;;5028358;28;20457;-81
2021/09/29 00:55:53;;;;;;;12.60;9.00;;;11.60;1.00;12.30;100736.00;;;;4980446;28;20478;-80
2021/09/29 00:58:21;;;;;;;9.43;7.43;;;11.50;1.00;12.30;100738.00;;;;4978838;28;20454;-80
2021/09/29 01:00:49;;;;;;;11.70;8.20;;;11.50;1.00;12.30;100731.00;;;;4982612;28;20534;-79
2021/09/29 01:03:18;;;;;;;14.03;8.60;;;11.50;1.00;12.30;100732.00;;;;4984722;28;20473;-79
2021/09/29 01:05:48;;;;;;;12.87;8.50;;;11.50;1.00;12.30;100715.00;;;;5020451;28;20502;-79
2021/09/29 01:08:27;;;;;;;10.00;8.20;;;11.70;1.00;12.30;100668.00;;;;5007002;28;20491;-79
2021/09/29 01:11:05;;;;;;;12.67;8.60;;;11.50;1.00;12.40;100690.00;;;;4989972;28;20450;-79
2021/09/29 01:13:42;;;;;;;17.00;8.93;;;11.50;1.00;12.30;100714.00;;;;4998602;28;20459;-79
2021/09/29 01:16:12;;;;;;;10.37;8.97;;;11.50;1.00;12.40;100672.00;;;;5001045;28;20476;-80
2021/09/29 01:18:45;;;;;;;10.93;8.53;;;11.50;1.00;12.40;100717.00;;;;4990103;28;20486;-79
2021/09/29 01:21:15;;;;;;;14.40;8.47;;;11.50;1.00;12.50;100710.00;;;;5004341;28;20461;-79
2021/09/29 01:24:03;;;;;;;10.80;8.60;;;11.60;1.00;12.60;100714.00;;;;5007155;28;20526;-79
2021/09/29 01:26:38;;;;;;;9.47;7.97;;;11.70;1.00;12.60;100709.00;;;;4994799;28;20454;-80
2021/09/29 01:29:09;;;;;;;8.60;7.80;;;11.80;1.00;12.60;100699.00;;;;5003279;28;20497;-80
2021/09/29 01:31:39;;;;;;;10.97;8.83;;;11.80;1.00;12.60;100701.00;;;;4995449;28;20486;-80
2021/09/29 01:34:09;;;;;;;11.50;8.77;;;11.90;1.00;12.60;100706.00;;;;4988712;28;20561;-79
2021/09/29 01:36:39;;;;;;;10.40;8.43;;;11.80;1.00;12.60;100699.00;;;;5007077;28;21025;-79
2021/09/29 01:39:10;;;;;;;9.87;8.00;;;11.70;1.00;12.60;100692.00;;;;4996760;28;20478;-79
2021/09/29 01:41:41;;;;;;;9.83;7.83;;;11.70;1.00;12.60;100694.00;;;;4994531;28;20546;-80
2021/09/29 01:44:10;;;;;;;9.83;8.83;;;11.70;1.00;12.70;100674.00;;;;4999918;28;20505;-79
2021/09/29 01:46:39;;;;;;;12.40;8.30;;;11.80;1.00;12.70;100673.00;;;;4976354;28;20454;-80
2021/09/29 01:49:13;;;;;;;10.33;8.50;;;11.80;1.00;12.70;100683.00;;;;4985568;28;20565;-79
2021/09/29 01:51:45;;;;;;;11.30;8.47;;;11.80;1.00;12.80;100679.00;;;;4987304;28;20556;-80
2021/09/29 01:54:18;;;;;;;15.47;9.63;;;11.80;1.00;12.80;100678.00;;;;5000547;28;20462;-79
2021/09/29 01:56:48;;;;;;;10.60;8.40;;;11.90;1.00;12.90;100686.00;;;;5002677;28;21018;-80
2021/09/29 01:59:17;;;;;;;13.60;7.93;;;12.00;1.00;12.80;100683.00;;;;5004145;28;20486;-79
2021/09/29 02:01:45;;;;;;;8.93;7.50;;;12.00;1.00;13.00;100685.00;;;;5014605;28;20465;-79
2021/09/29 02:04:14;;;;;;;12.03;8.33;;;12.10;1.00;13.00;100666.00;;;;5000968;28;20437;-79
2021/09/29 02:06:47;;;;;;;8.93;7.70;;;12.30;1.00;13.10;100678.00;;;;5021352;28;20453;-79
2021/09/29 02:09:16;;;;;;;10.40;8.10;;;12.20;1.00;13.10;100639.00;;;;5006285;28;20474;-78
2021/09/29 02:11:47;;;;;;;9.90;6.57;;;12.30;1.00;13.20;100666.00;;;;5003442;28;20449;-79
2021/09/29 02:14:18;;;;;;;8.70;6.57;;;12.40;1.00;13.20;100656.00;;;;4998313;28;20517;-79
2021/09/29 02:16:47;;;;;;;9.30;7.57;;;12.40;1.00;13.30;100669.00;;;;4999660;28;20459;-79
2021/09/29 02:19:15;;;;;;;8.20;7.40;;;12.40;1.00;13.30;100680.00;;;;4980708;28;20494;-78
2021/09/29 02:21:44;;;;;;;8.30;6.53;;;12.40;1.00;13.30;100664.00;;;;4991322;28;20818;-80
2021/09/29 02:24:13;;;;;;;9.60;7.33;;;12.40;1.00;13.40;100666.00;;;;4992566;28;20450;-78
2021/09/29 02:26:42;;;;;;;8.47;7.57;;;12.60;1.00;13.40;100670.00;;;;4992724;28;20465;-78
2021/09/29 02:29:14;;;;;;;8.20;7.40;;;12.40;1.00;13.40;100664.00;;;;4990212;28;21221;-78
2021/09/29 02:31:44;;;;;;;10.47;6.87;;;12.50;1.00;13.40;100673.00;;;;4990347;28;20458;-78
2021/09/29 02:34:13;;;;;;;9.87;7.90;;;12.50;1.00;13.50;100686.00;;;;4999786;28;20446;-78
2021/09/29 02:36:42;;;;;;;10.83;8.10;;;12.50;1.00;13.50;100675.00;;;;4999751;28;20454;-78
2021/09/29 02:39:11;;;;;;;8.07;6.80;;;12.60;1.00;13.50;100669.00;;;;4998679;28;20466;-80
2021/09/29 02:41:39;;;;;;;8.80;7.77;;;12.60;1.00;13.50;100669.00;;;;4998429;28;20458;-79
2021/09/29 02:44:09;;;;;;;7.10;6.17;;;12.60;1.00;13.50;100674.00;;;;4966533;28;20451;-80
2021/09/29 02:46:41;;;;;;;12.37;7.10;;;12.60;1.00;13.50;100672.00;;;;4999886;28;20451;-78
2021/09/29 02:49:12;;;;;;;9.77;7.30;;;12.70;1.00;13.60;100665.00;;;;4984914;28;20476;-78
2021/09/29 02:51:41;;;;;;;10.97;7.60;;;12.70;1.00;13.50;100655.00;;;;4990284;28;20510;-79
2021/09/29 02:54:10;;;;;;;9.30;6.97;;;12.70;1.00;13.50;100664.00;;;;5006475;28;20466;-78
2021/09/29 02:56:38;;;;;;;10.60;7.13;;;12.70;1.00;13.50;100667.00;;;;5002279;28;20463;-78
2021/09/29 02:59:08;;;;;;;9.27;7.47;;;12.70;1.00;13.50;100666.00;;;;4988950;28;20482;-79
2021/09/29 03:01:39;;;;;;;10.03;7.87;;;12.70;1.00;13.50;100669.00;;;;5014356;28;20485;-79
2021/09/29 03:04:16;;;;;;;9.83;7.03;;;12.70;1.00;13.60;100682.00;;;;5016633;28;20450;-79
2021/09/29 03:06:44;;;;;;;8.23;7.50;;;12.80;1.00;13.60;100652.00;;;;5002287;28;20947;-79
2021/09/29 03:09:13;;;;;;;8.53;7.07;;;12.80;1.00;13.60;100684.00;;;;4997184;28;20485;-78
2021/09/29 03:11:41;;;;;;;7.73;6.50;;;12.90;1.00;13.60;100687.00;;;;4996998;28;20465;-79
2021/09/29 03:14:09;;;;;;;11.30;7.63;;;12.90;1.00;13.70;100683.00;;;;5001248;28;20457;-80
2021/09/29 03:16:39;;;;;;;9.17;7.50;;;12.90;1.00;13.70;100651.00;;;;5000485;28;20451;-79
2021/09/29 03:19:07;;;;;;;8.70;7.80;;;12.90;1.00;13.70;100700.00;;;;4994393;28;20492;-78
2021/09/29 03:21:36;;;;;;;11.00;7.37;;;12.90;1.00;13.70;100686.00;;;;5015081;28;20497;-79
2021/09/29 03:24:04;;;;;;;10.90;7.53;;;13.00;1.00;13.70;100691.00;;;;5017867;28;20443;-79
2021/09/29 03:26:33;;;;;;;11.37;6.87;;;12.90;1.00;13.70;100685.00;;;;5037200;28;20468;-82
2021/09/29 03:29:01;;;;;;;13.93;7.17;;;12.90;1.00;13.70;100654.00;;;;5027711;28;20463;-80
2021/09/29 03:31:30;;;;;;;9.03;6.73;;;12.90;1.00;13.70;100685.00;;;;5012883;28;20554;-78
2021/09/29 03:34:00;;;;;;;8.47;7.63;;;12.90;1.00;13.70;100687.00;;;;4977752;28;20463;-80
2021/09/29 03:36:28;;;;;;;9.33;7.23;;;12.90;1.00;13.70;100681.00;;;;4993246;28;20451;-80
2021/09/29 03:39:00;;;;;;;11.30;7.90;;;12.90;1.00;13.70;100660.00;;;;4988077;28;20479;-80
2021/09/29 03:41:28;;;;;;;7.93;6.90;;;12.90;1.00;13.70;100648.00;;;;5003085;28;20477;-80
2021/09/29 03:43:57;;;;;;;8.97;7.83;;;12.90;1.00;13.70;100685.00;;;;5006842;28;20517;-83
2021/09/29 03:46:26;;;;;;;7.90;7.10;;;12.90;1.00;13.70;100686.00;;;;5018474;28;20524;-79
2021/09/29 03:48:54;;;;;;;8.57;7.10;;;12.90;1.00;13.60;100677.00;;;;5006281;28;21077;-79
2021/09/29 03:51:24;;;;;;;11.80;7.57;;;12.80;1.00;13.70;100680.00;;;;4997119;28;20458;-82
2021/09/29 03:53:52;;;;;;;7.97;7.03;;;12.80;1.00;13.70;100645.00;;;;4998382;28;20438;-78
2021/09/29 03:56:21;;;;;;;9.63;7.20;;;12.80;1.00;13.70;100679.00;;;;4996951;28;20449;-79
2021/09/29 03:58:49;;;;;;;9.63;7.30;;;12.90;1.00;13.70;100682.00;;;;4994725;28;20528;-78
2021/09/29 04:01:19;;;;;;;10.67;7.87;;;12.90;1.00;13.70;100677.00;;;;4995648;28;20486;-78
2021/09/29 04:03:47;;;;;;;11.30;7.67;;;12.90;1.00;13.70;100656.00;;;;5003513;28;20454;-79
2021/09/29 04:06:16;;;;;;;8.00;7.20;;;12.90;1.00;13.60;100663.00;;;;4995492;28;20455;-79
2021/09/29 04:08:45;;;;;;;9.57;7.03;;;12.90;1.00;13.60;100661.00;;;;4995797;28;20478;-79
2021/09/29 04:11:14;;;;;;;9.40;7.43;;;12.80;1.00;13.50;100658.00;;;;5005509;28;20443;-79
2021/09/29 04:13:42;;;;;;;7.53;6.83;;;12.80;1.00;13.50;100658.00;;;;5003091;28;20454;-79
2021/09/29 04:16:10;;;;;;;7.13;6.40;;;12.70;1.00;13.40;100666.00;;;;4996087;28;20447;-78
2021/09/29 04:18:39;;;;;;;8.57;6.57;;;12.70;1.00;13.40;100670.00;;;;5001847;28;20520;-79
2021/09/29 04:21:07;;;;;;;12.23;7.00;;;12.70;1.00;13.40;100668.00;;;;5000577;28;20472;-79
2021/09/29 04:23:35;;;;;;;7.63;6.83;;;12.70;1.00;13.30;100667.00;;;;5006612;28;20461;-79
2021/09/29 04:26:05;;;;;;;9.13;6.90;;;12.70;1.00;13.30;100671.00;;;;4998181;28;20951;-81
2021/09/29 04:28:35;;;;;;;10.33;7.47;;;12.70;1.00;13.20;100678.00;;;;5008972;28;20481;-84
2021/09/29 04:31:04;;;;;;;8.23;7.23;;;12.60;1.00;13.20;100683.00;;;;5010384;28;20439;-80
2021/09/29 04:33:32;;;;;;;9.20;7.10;;;12.60;1.00;13.20;100679.00;;;;5019986;23;20451;-75
2021/09/29 04:36:01;;;;;;;8.80;7.87;;;12.60;1.00;13.10;100671.00;;;;5021407;28;20542;-75
2021/09/29 04:38:29;;;;;;;14.13;7.10;;;12.60;1.00;13.10;100671.00;;;;5012870;28;20457;-74
2021/09/29 04:40:57;;;;;;;7.87;6.87;;;12.50;1.00;13.10;100679.00;;;;5013300;28;20473;-74
2021/09/29 04:43:27;;;;;;;10.93;7.30;;;12.50;1.00;13.00;100673.00;;;;5012416;28;20465;-74
2021/09/29 04:45:55;;;;;;;8.90;7.50;;;12.40;1.00;13.00;100678.00;;;;5006098;28;20954;-74
2021/09/29 04:48:24;;;;;;;7.60;6.90;;;12.30;1.00;12.70;100677.00;;;;4999584;28;20502;-74
2021/09/29 04:50:52;;;;;;;8.30;7.50;;;12.40;1.00;12.80;100709.00;;;;5017887;28;20781;-74
2021/09/29 04:53:20;;;;;;;10.70;8.00;;;12.30;1.00;12.80;100709.00;;;;5011682;28;20934;-76
2021/09/29 04:55:49;;;;;;;8.97;7.30;;;12.20;1.00;12.70;100695.00;;;;5010087;28;20462;-74
2021/09/29 04:58:17;;;;;;;10.90;7.70;;;12.20;1.00;12.70;100709.00;;;;5014953;28;20468;-75
2021/09/29 05:00:47;;;;;;;11.23;7.90;;;12.20;1.00;12.70;100703.00;;;;5015650;28;20565;-75
2021/09/29 05:03:20;;;;;;;10.53;8.17;;;12.10;1.00;12.60;100706.00;;;;5011493;28;20651;-75
2021/09/29 05:05:48;;;;;;;8.63;7.23;;;12.10;1.00;12.60;100709.00;;;;5018527;28;20458;-77
2021/09/29 05:08:22;;;;;;;10.67;8.30;;;12.10;1.00;12.60;100714.00;;;;5012747;28;20461;-78
2021/09/29 05:10:55;;;;;;;11.80;8.03;;;12.20;1.00;12.50;100703.00;;;;5008838;28;20541;-77
2021/09/29 05:13:27;;;;;;;11.73;7.90;;;12.00;1.00;12.50;100713.00;;;;5011596;28;20508;-77
2021/09/29 05:15:56;;;;;;;9.70;8.60;;;12.00;1.00;12.40;100702.00;;;;5013229;28;20457;-75
2021/09/29 05:18:25;;;;;;;9.63;8.63;;;12.00;1.00;12.40;100701.00;;;;5008848;28;20542;-74
2021/09/29 05:20:54;;;;;;;10.30;8.33;;;12.00;1.00;12.40;100707.00;;;;4994446;28;20477;-75
2021/09/29 05:23:22;;;;;;;10.60;8.20;;;11.90;1.00;12.30;100707.00;;;;5005994;28;20494;-77
2021/09/29 05:25:51;;;;;;;8.93;7.77;;;11.90;1.00;12.40;100664.00;;;;5015695;28;20454;-76
2021/09/29 05:28:24;;;;;;;11.43;8.73;;;11.90;1.00;12.50;100724.00;;;;5011089;28;20461;-77
2021/09/29 05:30:53;;;;;;;12.60;8.23;;;11.90;1.00;12.50;100722.00;;;;5016201;28;20457;-77
2021/09/29 05:33:22;;;;;;;9.90;8.43;;;12.00;1.00;12.60;100725.00;;;;5014493;28;20923;-77
2021/09/29 05:35:51;;;;;;;13.03;8.43;;;12.10;1.00;12.60;100715.00;;;;5010746;28;20493;-77
2021/09/29 05:38:19;;;;;;;12.50;9.80;;;12.10;1.00;12.70;100748.00;;;;5013422;28;20846;-76
2021/09/29 05:40:54;;;;;;;12.43;9.07;;;12.20;1.00;12.60;100731.00;;;;5017008;28;20463;-76
2021/09/29 05:43:23;;;;;;;11.40;7.87;;;12.20;1.00;12.70;100733.00;;;;5010219;28;20482;-75
2021/09/29 05:45:52;;;;;;;11.60;8.33;;;12.30;1.00;12.80;100717.00;;;;5012027;28;20842;-74
2021/09/29 05:48:22;;;;;;;11.30;8.50;;;12.40;1.00;12.80;100724.00;;;;5009685;28;20450;-76
2021/09/29 05:50:51;;;;;;;9.90;8.50;;;12.30;1.00;12.80;100711.00;;;;5010768;28;20456;-76
2021/09/29 05:53:19;;;;;;;10.60;8.30;;;12.30;1.00;12.90;100716.00;;;;5008292;28;20468;-77
2021/09/29 05:55:47;;;;;;;10.20;9.07;;;12.30;1.00;12.90;100705.00;;;;5018710;28;20454;-78
2021/09/29 05:58:17;;;;;;;12.03;9.10;;;12.30;1.00;13.00;100709.00;;;;5015971;28;20477;-77
2021/09/29 06:00:45;;;;;;;10.30;9.20;;;12.40;1.00;13.10;100714.00;;;;5012314;28;20454;-75
2021/09/29 06:03:13;;;;;;;12.43;8.57;;;12.40;1.00;13.10;100718.00;;;;5007946;28;20921;-75
2021/09/29 06:05:43;;;;;;;15.97;8.73;;;12.50;1.00;13.10;100725.00;;;;4991656;28;20540;-75
2021/09/29 06:08:11;;;;;;;14.20;8.57;;;12.50;1.00;13.00;100720.00;;;;4989381;28;20465;-75
2021/09/29 06:10:40;;;;;;;10.37;8.57;;;12.40;1.00;13.00;100707.00;;;;5004318;28;20452;-78
2021/09/29 06:13:08;;;;;;;10.63;8.30;;;12.40;1.00;13.00;100678.00;;;;5015528;28;20850;-78
2021/09/29 06:15:36;;;;;;;12.40;8.83;;;12.40;1.00;13.00;100713.00;;;;4993478;28;20457;-74
2021/09/29 06:18:12;;;;;;;8.43;7.53;;;12.50;1.00;13.30;100702.00;;;;5013441;28;20469;-75
2021/09/29 06:20:46;;;;;;;11.70;7.93;;;12.60;1.00;13.50;100713.00;;;;5008200;28;20977;-75
2021/09/29 06:23:17;;;;;;;11.97;8.40;;;12.80;1.00;13.70;100702.00;;;;5016496;28;21122;-75
2021/09/29 06:25:47;;;;;;;15.83;9.00;;;12.90;1.00;13.70;100703.00;;;;5011365;28;20492;-75
2021/09/29 06:28:15;;;;;;;10.73;8.20;;;12.90;1.00;13.70;100707.00;;;;5029646;28;20449;-74
2021/09/29 06:30:44;;;;;;;12.93;8.20;;;12.90;1.00;13.60;100718.00;;;;5014227;28;20488;-78
2021/09/29 06:33:13;;;;;;;11.10;8.93;;;12.90;1.00;13.50;100706.00;;;;5014299;28;20476;-75
2021/09/29 06:35:42;;;;;;;8.60;7.70;;;12.90;1.00;13.50;100715.00;;;;4976535;28;1080889;-76
2021/09/29 06:38:11;;;;;;;8.93;8.03;;;12.80;1.00;13.40;100655.00;;;;4994401;28;20222;-76
2021/09/29 06:40:39;;;;;;;13.53;8.17;;;12.80;1.00;13.40;100714.00;;;;5016953;28;20772;-77
2021/09/29 06:43:08;;;;;;;10.80;8.60;;;12.80;1.00;13.40;100697.00;;;;5019098;28;20477;-76
2021/09/29 06:45:37;;;;;;;11.90;9.37;;;12.70;1.00;13.30;100723.00;;;;5011972;28;20489;-78
2021/09/29 06:48:06;;;;;;;11.00;8.30;;;12.70;1.00;13.30;100724.00;;;;5015247;28;20512;-78
2021/09/29 06:50:35;;;;;;;9.40;8.47;;;12.70;1.00;13.50;100693.00;;;;5015354;28;20496;-74
2021/09/29 06:53:05;;;;;;;14.40;9.00;;;12.90;1.00;13.70;100680.00;;;;5016951;28;20456;-75
2021/09/29 06:55:34;;;;;;;17.43;8.50;;;12.90;1.00;13.90;100704.00;;;;5018245;28;20469;-77
2021/09/29 06:58:02;;;;;;;10.00;8.97;;;13.10;1.00;14.00;100682.00;;;;5020094;28;20457;-77
2021/09/29 07:00:30;;;;;;;11.97;8.83;;;13.20;1.00;13.90;100699.00;;;;5023601;28;20541;-76
2021/09/29 07:02:59;;;;;;;16.87;9.10;;;13.30;1.00;14.10;100638.00;;;;5015838;28;20493;-77
2021/09/29 07:05:28;;;;;;;9.53;8.47;;;13.40;1.00;13.90;100695.00;;;;5019391;28;20556;-75
2021/09/29 07:07:56;;;;;;;13.43;8.70;;;13.70;1.00;14.40;100698.00;;;;5020024;28;20452;-76
2021/09/29 07:10:27;;;;;;;10.00;8.70;;;13.60;1.00;14.40;100614.00;;;;4996912;28;20451;-77
2021/09/29 07:12:57;;;;;;;11.50;8.63;;;13.70;1.00;14.50;100705.00;;;;5012907;28;20454;-76
2021/09/29 07:15:27;;;;;;;11.80;8.03;;;13.70;1.00;14.60;100713.00;;;;5008406;28;20512;-75
2021/09/29 07:17:59;;;;;;;9.70;8.10;;;13.80;1.00;14.70;100730.00;;;;5009490;28;20476;-77
2021/09/29 07:20:29;;;;;;;9.83;8.50;;;13.90;1.00;14.80;100717.00;;;;5014890;28;20445;-75
2021/09/29 07:23:00;;;;;;;9.40;8.47;;;14.00;1.00;14.90;100700.00;;;;5013332;28;20511;-77
2021/09/29 07:25:30;;;;;;;9.60;7.90;;;14.10;1.00;15.00;100731.00;;;;5013374;28;20480;-74
2021/09/29 07:27:59;;;;;;;12.37;7.93;;;14.30;1.00;15.20;100723.00;;;;5012921;28;20472;-74
2021/09/29 07:30:29;;;;;;;9.23;7.50;;;14.40;1.00;15.50;100713.00;;;;5018320;28;20464;-74
2021/09/29 07:33:02;;;;;;;12.03;8.00;;;14.70;1.00;15.80;100712.00;;;;5018110;28;20461;-76
2021/09/29 07:35:32;;;;;;;11.43;8.20;;;15.00;1.00;16.20;100700.00;;;;4997396;28;20489;-76
2021/09/29 07:38:02;;;;;;;9.20;6.57;;;15.40;1.00;16.30;100707.00;;;;5016014;28;20442;-77
2021/09/29 07:40:32;;;;;;;7.23;6.53;;;15.60;1.00;16.30;100580.00;;;;4994495;28;20458;-78
2021/09/29 07:43:00;;;;;;;10.60;6.43;;;15.60;1.00;16.10;100722.00;;;;5007704;28;20481;-78
2021/09/29 07:45:29;;;;;;;8.87;6.10;;;15.40;1.00;16.00;100719.00;;;;5010046;28;20485;-79
2021/09/29 07:47:58;;;;;;;9.13;6.90;;;15.20;1.00;15.90;100712.00;;;;5015299;28;20468;-78
2021/09/29 07:50:27;;;;;;;11.63;6.90;;;15.10;1.00;16.00;100708.00;;;;5012331;28;20446;-72
2021/09/29 07:52:55;;;;;;;7.67;6.30;;;15.10;1.00;16.00;100715.00;;;;5016978;28;20456;-72
2021/09/29 07:55:24;;;;;;;10.27;6.47;;;15.10;1.00;16.00;100706.00;;;;5033871;28;20485;-73
2021/09/29 07:57:53;;;;;;;8.50;6.37;;;15.10;1.00;16.00;100681.00;;;;5032683;28;20470;-75
2021/09/29 08:00:22;;;;;;;8.60;6.40;;;15.10;1.00;16.00;100712.00;;;;5019240;28;20444;-72
2021/09/29 08:02:52;;;;;;;9.07;6.40;;;15.10;1.00;16.10;100705.00;;;;5016801;28;20505;-74
2021/09/29 08:05:21;;;;;;;7.37;6.20;;;15.20;1.00;16.20;100705.00;;;;5016867;28;20517;-73
2021/09/29 08:07:50;;;;;;;8.10;5.40;;;15.40;1.00;16.30;100693.00;;;;5012324;28;20460;-74
2021/09/29 08:10:20;;;;;;;8.37;5.90;;;15.50;1.00;16.40;100693.00;;;;5011486;28;20481;-74
2021/09/29 08:12:55;;;;;;;8.90;5.67;;;15.60;1.00;16.60;100697.00;;;;5011955;28;20498;-73
2021/09/29 08:15:24;;;;;;;9.60;4.60;;;15.80;1.00;16.70;100694.00;;;;5016580;28;20473;-71
2021/09/29 08:17:55;;;;;;;5.90;5.07;;;15.90;1.00;16.80;100711.00;;;;5012771;28;20862;-72
2021/09/29 08:20:26;;;;;;;6.90;4.90;;;16.00;1.00;16.90;100696.00;;;;4995655;28;20456;-72
2021/09/29 08:22:59;;;;;;;7.40;4.67;;;16.10;1.00;17.00;100685.00;;;;5015638;28;20466;-73
2021/09/29 08:25:45;;;;;;;5.03;4.00;;;16.20;1.00;16.90;100703.00;;;;5022575;28;20563;-72
2021/09/29 08:28:25;;;;;;;6.40;4.50;;;16.20;1.00;16.80;100702.00;;;;5015526;28;20553;-75
2021/09/29 08:31:04;;;;;;;7.77;4.33;;;16.10;1.00;16.90;100712.00;;;;5028410;28;20453;-75
2021/09/29 08:36:25;;;;;;;5.90;4.27;;;16.20;1.00;17.10;100716.00;;;;5016351;28;20467;-76
2021/09/29 08:38:57;;;;;;;4.80;3.13;;;16.30;1.00;17.10;100696.00;;;;5016587;28;20458;-75
2021/09/29 08:41:40;;;;;;;6.77;4.47;;;16.40;1.00;17.10;100696.00;;;;5012958;28;20465;-75
2021/09/29 08:44:14;;;;;;;6.20;4.10;;;16.30;1.00;17.30;100705.00;;;;5013484;28;20541;-75
2021/09/29 08:46:58;;;;;;;5.80;4.37;;;16.40;1.00;17.50;100699.00;;;;5012334;28;20470;-74
2021/09/29 08:49:38;;;;;;;6.03;4.23;;;16.60;1.00;17.60;100677.00;;;;4995043;28;20516;-73
2021/09/29 09:17:04;;;;;;;6.80;4.10;;;16.80;1.00;18.10;100692.00;;;;5011200;28;20461;-74
2021/09/29 09:19:35;;;;;;;6.10;4.23;;;17.00;1.00;18.30;100694.00;;;;4998031;28;20461;-74
2021/09/29 09:22:06;;;;;;;7.17;3.67;;;17.30;1.00;18.40;100686.00;;;;5010670;28;20467;-74
2021/09/29 09:24:36;;;;;;;8.03;4.53;;;17.40;1.00;18.60;100689.00;;;;5024061;28;20489;-78
2021/09/29 09:27:08;;;;;;;4.97;3.57;;;17.50;1.00;18.70;100667.00;;;;4999375;28;20813;-77
2021/09/29 09:29:45;;;;;;;8.57;3.73;;;17.70;1.00;18.90;100685.00;;;;5022277;28;20461;-77
2021/09/29 09:32:18;;;;;;;5.63;3.67;;;17.90;1.00;19.10;100679.00;;;;5016604;28;20544;-76
2021/09/29 09:34:47;;;;;;;3.47;3.17;;;18.20;1.00;19.30;100674.00;;;;4993902;28;20485;-76
2021/09/29 09:37:18;;;;;;;6.30;3.13;;;18.40;1.00;19.20;100676.00;;;;5004929;28;20520;-78
2021/09/29 09:39:46;;;;;;;4.80;3.37;;;18.50;1.00;19.50;100601.00;;;;5012794;28;20523;-78
2021/09/29 09:42:15;;;;;;;5.87;2.90;;;18.70;1.00;19.30;100670.00;;;;5007348;28;20544;-78
2021/09/29 09:44:43;;;;;;;5.17;3.20;;;18.40;1.00;19.40;100666.00;;;;5018707;28;20563;-77
2021/09/29 09:47:16;;;;;;;3.57;2.90;;;18.40;1.00;19.40;100659.00;;;;5012367;28;20450;-76
2021/09/29 09:49:45;;;;;;;4.57;2.77;;;18.50;1.00;19.50;100658.00;;;;5022024;28;20442;-77
2021/09/29 09:52:15;;;;;;;6.97;2.67;;;18.60;1.00;19.50;100658.00;;;;5025647;28;20453;-76
2021/09/29 09:54:43;;;;;;;5.53;2.93;;;18.80;1.00;19.60;100631.00;;;;5012130;28;20498;-75
2021/09/29 09:57:19;;;;;;;4.87;2.40;;;18.80;1.00;19.70;100655.00;;;;5009359;28;20462;-77
2021/09/29 09:59:49;;;;;;;4.60;2.20;;;19.00;1.00;19.30;100654.00;;;;4993434;28;20478;-77
2021/09/29 10:02:19;;;;;;;3.80;1.50;;;18.70;1.00;18.90;100663.00;;;;5001131;28;20998;-78
2021/09/29 10:04:50;;;;;;;5.73;1.90;;;18.30;1.00;18.70;100661.00;;;;5014044;28;20492;-76
2021/09/29 10:07:18;;;;;;;4.00;2.20;;;18.10;1.00;18.50;100652.00;;;;5014532;28;20500;-75
2021/09/29 10:09:52;;;;;;;6.80;2.20;;;17.90;1.00;18.60;100663.00;;;;5014137;28;20545;-76
2021/09/29 10:12:29;;;;;;;4.10;1.97;;;18.00;1.00;18.80;100641.00;;;;5011882;28;20457;-78
2021/09/29 10:23:29;;;;;;;4.83;1.83;;;18.60;1.00;19.30;100638.00;;;;5012343;28;20461;-74
2021/09/29 10:26:10;;;;;;;4.50;2.00;;;18.70;1.00;19.20;100620.00;;;;5012946;28;20485;-75
2021/09/29 10:28:41;;;;;;;5.50;1.60;;;18.60;1.00;18.90;100627.00;;;;4993735;28;20500;-77
2021/09/29 10:31:37;;;;;;;5.50;1.67;;;18.50;1.00;18.90;100624.00;;;;5014967;28;20458;-74
2021/09/29 10:34:13;;;;;;;3.10;1.13;;;18.60;1.00;19.20;100610.00;;;;5019526;28;20857;-76
2021/09/29 10:36:59;;;;;;;3.73;1.50;;;19.00;1.00;19.00;100602.00;;;;5012545;28;20492;-76
2021/09/29 10:42:25;;;;;;;3.10;1.50;;;18.90;1.00;19.30;100599.00;;;;5013348;28;20419;-75
2021/09/29 11:07:35;;;;;;;3.73;1.43;;;19.70;1.00;20.10;100592.00;;;;5022190;28;20453;-77
2021/09/29 11:29:45;;;;;;;5.00;1.40;;;19.20;1.00;19.20;100598.00;;;;5034460;28;20436;-75
2021/09/29 11:32:25;;;;;;;4.60;2.00;;;18.70;1.00;18.90;100600.00;;;;5034977;28;20428;-74
2021/09/29 11:34:55;;;;;;;3.43;1.30;;;18.10;1.00;18.30;100595.00;;;;5017580;28;20571;-77
2021/09/29 11:37:42;;;;;;;4.73;1.57;;;17.60;1.00;17.70;100604.00;;;;4995022;28;20542;-74
2021/09/29 12:08:39;;;;;;;2.20;1.23;;;18.60;1.00;19.00;100594.00;;;;4999312;28;20454;-74
2021/09/29 12:11:13;;;;;;;3.80;1.40;;;18.60;1.00;19.10;100596.00;;;;4996842;28;20434;-74
2021/09/29 12:13:51;;;;;;;4.03;1.60;;;18.80;1.00;19.20;100592.00;;;;4996905;28;20538;-75
2021/09/29 12:16:30;;;;;;;4.63;1.47;;;18.70;1.00;19.00;100586.00;;;;4998048;28;20500;-75
2021/09/29 12:19:02;;;;;;;5.47;1.63;;;18.50;1.00;18.50;100610.00;;;;5013369;28;20442;-75
2021/09/29 12:21:38;;;;;;;3.03;1.43;;;18.00;1.00;18.30;100603.00;;;;5013817;28;20445;-74
2021/09/29 12:24:09;;;;;;;3.23;1.43;;;17.60;1.00;17.80;100689.00;;;;4994151;28;20495;-77
2021/09/29 12:26:49;;;;;;;2.13;1.07;;;17.20;1.00;16.00;100595.00;;;;5002089;28;20823;-86
2021/09/29 12:29:25;;;;;;;6.73;1.20;;;15.50;1.00;14.60;100667.00;;;;5012658;28;20480;-82
2021/09/29 12:32:11;;;;;;;3.87;1.10;;;13.80;1.00;14.00;100730.00;;;;4993951;28;20439;-83
2021/09/29 12:34:49;;;;;;;3.60;1.30;;;13.20;1.00;13.90;100671.00;;;;5021219;28;20558;-79
2021/09/29 12:37:17;;;;;;;3.70;1.80;;;12.90;1.00;13.90;100716.00;;;;5011846;28;20449;-81
2021/09/29 12:39:46;;;;;;;4.20;1.27;;;13.00;1.00;14.10;100440.00;;;;4985619;28;20459;-80
2021/09/29 12:42:35;;;;;;;1.90;1.27;;;13.00;1.00;14.10;100686.00;;;;5013402;28;20498;-80
2021/09/29 12:45:06;;;;;;;3.00;1.37;;;13.00;1.00;14.20;100679.00;;;;5017888;28;20509;-80
2021/09/29 12:47:41;;;;;;;3.13;1.37;;;13.10;1.00;14.00;100691.00;;;;5013924;28;20464;-79
2021/09/29 12:50:13;;;;;;;2.67;1.23;;;13.20;1.00;14.40;100685.00;;;;5004875;28;20441;-80
2021/09/29 12:52:49;;;;;;;3.23;1.30;;;13.40;1.00;14.50;100678.00;;;;5016931;28;20461;-79
2021/09/29 12:55:22;;;;;;;4.83;1.57;;;13.40;1.00;14.80;100666.00;;;;5014627;28;20496;-80
2021/09/29 12:57:50;;;;;;;6.10;1.10;;;13.60;1.00;15.00;100668.00;;;;5015402;28;20451;-79